createdAt,value
2022-07-26T00:01:01.864Z,1.77
2022-07-26T00:03:29.687Z,1.60
2022-07-26T00:05:57.700Z,1.83
2022-07-26T00:08:25.486Z,2.10
2022-07-26T00:10:54.661Z,1.77
2022-07-26T00:13:23.424Z,1.57
2022-07-26T00:15:52.257Z,1.63
2022-07-26T00:18:20.643Z,2.00
2022-07-26T00:20:48.909Z,2.20
2022-07-26T00:23:16.925Z,1.83
2022-07-26T00:25:44.662Z,2.00
2022-07-26T00:28:14.468Z,1.77
2022-07-26T00:30:42.261Z,2.00
2022-07-26T00:33:10.034Z,1.60
2022-07-26T00:35:38.078Z,1.70
2022-07-26T00:38:06.030Z,1.70
2022-07-26T00:40:34.108Z,2.07
2022-07-26T00:43:01.942Z,1.97
2022-07-26T00:45:31.193Z,1.70
2022-07-26T00:47:59.143Z,2.07
2022-07-26T00:50:27.029Z,1.70
2022-07-26T00:52:55.345Z,2.30
2022-07-26T00:55:23.367Z,1.67
2022-07-26T00:57:51.653Z,2.07
2022-07-26T01:00:22.374Z,1.60
2022-07-26T01:02:51.557Z,2.43
2022-07-26T01:05:19.496Z,1.40
2022-07-26T01:07:47.975Z,1.70
2022-07-26T01:10:15.866Z,1.80
2022-07-26T01:12:44.429Z,2.07
2022-07-26T01:15:14.716Z,1.70
2022-07-26T01:17:43.759Z,1.90
2022-07-26T01:20:15.298Z,1.60
2022-07-26T01:22:44.500Z,2.10
2022-07-26T01:25:12.266Z,1.80
2022-07-26T01:27:40.474Z,2.20
2022-07-26T01:30:11.582Z,2.37
2022-07-26T01:32:39.568Z,1.77
2022-07-26T01:35:08.519Z,1.70
2022-07-26T01:37:36.333Z,1.60
2022-07-26T01:40:07.140Z,1.53
2022-07-26T01:42:35.278Z,1.73
2022-07-26T01:45:03.123Z,1.83
2022-07-26T01:47:30.889Z,1.40
2022-07-26T01:49:58.690Z,1.27
2022-07-26T01:52:27.596Z,1.50
2022-07-26T01:54:55.379Z,1.67
2022-07-26T01:57:24.532Z,1.40
2022-07-26T01:59:52.445Z,1.30
2022-07-26T02:02:20.294Z,1.20
2022-07-26T02:05:00.088Z,1.73
2022-07-26T02:07:27.965Z,1.40
2022-07-26T02:09:56.673Z,1.53
2022-07-26T02:12:27.340Z,1.43
2022-07-26T02:14:55.105Z,1.23
2022-07-26T02:17:22.944Z,1.23
2022-07-26T02:19:52.040Z,1.50
2022-07-26T02:22:20.059Z,1.33
2022-07-26T02:24:47.903Z,1.30
2022-07-26T02:27:16.284Z,1.73
2022-07-26T02:29:45.708Z,1.40
2022-07-26T02:32:13.496Z,1.20
2022-07-26T02:34:41.318Z,1.10
2022-07-26T02:37:09.212Z,2.00
2022-07-26T02:39:37.049Z,1.57
2022-07-26T02:42:05.130Z,1.53
2022-07-26T02:44:34.915Z,1.37
2022-07-26T02:47:04.971Z,1.17
2022-07-26T02:49:32.818Z,1.37
2022-07-26T02:52:00.584Z,1.63
2022-07-26T02:54:28.404Z,1.60
2022-07-26T02:56:56.216Z,1.37
2022-07-26T02:59:24.014Z,1.60
2022-07-26T03:01:51.954Z,1.57
2022-07-26T03:04:21.706Z,1.40
2022-07-26T03:06:49.546Z,1.57
2022-07-26T03:09:17.706Z,1.67
2022-07-26T03:11:45.489Z,1.77
2022-07-26T03:14:13.281Z,1.57
2022-07-26T03:16:41.121Z,1.50
2022-07-26T03:19:08.917Z,1.43
2022-07-26T03:21:38.143Z,1.53
2022-07-26T03:24:07.072Z,1.33
2022-07-26T03:26:35.170Z,1.70
2022-07-26T03:29:03.011Z,1.50
2022-07-26T03:31:30.910Z,1.60
2022-07-26T03:34:03.123Z,1.47
2022-07-26T03:36:31.213Z,2.00
2022-07-26T03:39:00.500Z,1.80
2022-07-26T03:41:28.355Z,1.70
2022-07-26T03:43:56.189Z,1.83
2022-07-26T03:46:24.235Z,1.70
2022-07-26T03:48:52.193Z,1.93
2022-07-26T03:51:20.153Z,1.40
2022-07-26T03:53:48.015Z,2.00
2022-07-26T03:56:35.461Z,1.80
2022-07-26T03:59:05.106Z,1.90
2022-07-26T04:01:34.971Z,1.73
2022-07-26T04:04:03.235Z,1.90
2022-07-26T04:06:31.082Z,1.50
2022-07-26T04:08:58.876Z,1.77
2022-07-26T04:11:28.574Z,1.87
2022-07-26T04:13:56.911Z,1.73
2022-07-26T04:16:24.844Z,1.83
2022-07-26T04:18:52.913Z,2.47
2022-07-26T04:21:20.888Z,2.17
2022-07-26T04:23:51.302Z,2.63
2022-07-26T04:26:20.053Z,2.20
2022-07-26T04:28:49.728Z,2.03
2022-07-26T04:31:17.776Z,1.80
2022-07-26T04:33:45.838Z,2.20
2022-07-26T04:36:13.914Z,2.20
2022-07-26T04:38:41.707Z,2.17
2022-07-26T04:41:09.619Z,2.23
2022-07-26T04:43:37.585Z,1.77
2022-07-26T04:46:07.375Z,2.07
2022-07-26T04:48:35.350Z,2.70
2022-07-26T04:51:03.373Z,2.30
2022-07-26T04:53:31.331Z,2.83
2022-07-26T04:55:59.089Z,2.50
2022-07-26T04:58:27.000Z,2.33
2022-07-26T05:01:10.959Z,2.50
2022-07-26T05:03:40.710Z,2.73
2022-07-26T05:06:08.793Z,2.93
2022-07-26T05:08:36.617Z,2.80
2022-07-26T05:11:04.678Z,2.33
2022-07-26T05:13:32.907Z,2.50
2022-07-26T05:16:01.919Z,2.80
2022-07-26T05:18:31.905Z,2.30
2022-07-26T05:21:13.320Z,2.90
2022-07-26T05:23:41.098Z,2.90
2022-07-26T05:26:08.889Z,3.07
2022-07-26T05:28:39.090Z,2.60
2022-07-26T05:31:07.297Z,2.70
2022-07-26T05:33:35.144Z,2.70
2022-07-26T05:36:02.941Z,2.60
2022-07-26T05:38:32.135Z,3.10
2022-07-26T05:40:59.998Z,3.27
2022-07-26T05:43:28.307Z,2.70
2022-07-26T05:46:10.112Z,2.70
2022-07-26T05:48:38.140Z,2.97
2022-07-26T05:51:06.051Z,3.07
2022-07-26T05:53:35.237Z,2.40
2022-07-26T05:56:03.108Z,3.20
2022-07-26T05:58:30.998Z,2.17
2022-07-26T06:00:58.752Z,2.67
2022-07-26T06:03:26.980Z,2.40
2022-07-26T06:05:56.811Z,3.00
2022-07-26T06:08:25.667Z,2.70
2022-07-26T06:10:55.114Z,3.00
2022-07-26T06:13:23.568Z,2.87
2022-07-26T06:15:52.089Z,2.70
2022-07-26T06:18:19.980Z,2.40
2022-07-26T06:20:48.766Z,2.87
2022-07-26T06:23:16.672Z,2.73
2022-07-26T06:25:44.467Z,3.00
2022-07-26T06:28:13.704Z,2.53
2022-07-26T06:30:41.460Z,2.47
2022-07-26T06:33:09.616Z,2.50
2022-07-26T06:35:39.155Z,2.50
2022-07-26T06:38:08.219Z,2.87
2022-07-26T06:40:36.477Z,3.30
2022-07-26T06:43:05.313Z,3.30
2022-07-26T06:45:34.814Z,3.17
2022-07-26T06:48:02.729Z,3.10
2022-07-26T06:50:30.711Z,2.80
2022-07-26T06:52:58.532Z,2.60
2022-07-26T06:55:26.377Z,3.30
2022-07-26T06:57:54.207Z,2.80
2022-07-26T07:00:22.039Z,2.90
2022-07-26T07:02:51.296Z,3.03
2022-07-26T07:05:19.204Z,2.47
2022-07-26T07:07:47.157Z,3.30
2022-07-26T07:10:16.115Z,2.90
2022-07-26T07:12:46.298Z,2.70
2022-07-26T07:15:14.164Z,3.17
2022-07-26T07:17:41.952Z,3.03
2022-07-26T07:20:12.526Z,2.87
2022-07-26T07:22:40.317Z,2.63
2022-07-26T07:25:08.716Z,2.53
2022-07-26T07:27:36.766Z,3.00
2022-07-26T07:30:05.300Z,2.40
2022-07-26T07:32:33.221Z,3.00
2022-07-26T07:35:03.045Z,2.40
2022-07-26T07:37:52.978Z,2.70
2022-07-26T07:40:22.390Z,2.60
2022-07-26T07:42:50.465Z,2.97
2022-07-26T07:45:18.828Z,2.80
2022-07-26T07:47:46.653Z,2.95
2022-07-26T07:50:14.580Z,2.60
2022-07-26T07:52:43.856Z,2.58
2022-07-26T07:55:36.931Z,2.50
2022-07-26T07:57:59.651Z,3.78
2022-07-26T08:00:27.779Z,2.47
2022-07-26T08:02:55.718Z,2.60
2022-07-26T08:05:23.532Z,2.75
2022-07-26T08:07:54.092Z,2.30
2022-07-26T08:10:22.774Z,2.83
2022-07-26T08:12:51.359Z,2.67
2022-07-26T08:15:21.229Z,2.40
2022-07-26T08:17:53.785Z,2.60
2022-07-26T08:20:23.481Z,2.80
2022-07-26T08:22:54.269Z,2.50
2022-07-26T08:25:22.765Z,2.40
2022-07-26T08:28:03.189Z,2.17
2022-07-26T08:30:31.927Z,3.00
2022-07-26T08:33:00.508Z,2.33
2022-07-26T08:35:29.565Z,2.50
2022-07-26T08:37:59.169Z,2.40
2022-07-26T08:40:27.278Z,2.60
2022-07-26T08:42:56.273Z,2.97
2022-07-26T08:45:25.060Z,2.50
2022-07-26T08:48:16.041Z,2.70
2022-07-26T08:50:41.691Z,1.90
2022-07-26T08:53:13.153Z,1.50
2022-07-26T08:58:29.123Z,2.07
2022-07-26T09:01:08.469Z,2.03
2022-07-26T09:03:38.752Z,1.73
2022-07-26T09:06:18.803Z,1.60
2022-07-26T09:08:49.711Z,1.70
2022-07-26T09:11:38.079Z,1.27
2022-07-26T09:14:07.437Z,1.60
2022-07-26T09:16:39.701Z,1.90
2022-07-26T09:19:22.736Z,1.77
2022-07-26T09:21:51.041Z,1.63
2022-07-26T09:24:33.151Z,1.90
2022-07-26T09:27:02.542Z,2.03
2022-07-26T09:29:30.939Z,1.80
2022-07-26T09:32:11.660Z,2.27
2022-07-26T09:34:51.949Z,1.60
2022-07-26T09:37:34.820Z,1.50
2022-07-26T09:40:07.012Z,1.57
2022-07-26T09:42:35.156Z,1.50
2022-07-26T09:45:05.583Z,1.60
2022-07-26T09:47:38.018Z,1.70
2022-07-26T09:50:17.267Z,2.13
2022-07-26T09:53:10.036Z,3.80
2022-07-26T09:55:56.602Z,3.03
2022-07-26T09:58:25.126Z,2.87
2022-07-26T10:01:02.210Z,2.50
2022-07-26T10:03:31.450Z,2.00
2022-07-26T10:06:00.433Z,2.40
2022-07-26T10:08:29.828Z,1.70
2022-07-26T10:11:04.441Z,2.20
2022-07-26T10:13:32.804Z,2.17
2022-07-26T10:16:02.132Z,2.33
2022-07-26T10:18:47.365Z,2.07
2022-07-26T10:21:25.880Z,2.00
2022-07-26T10:23:56.748Z,2.43
2022-07-26T10:26:45.481Z,2.30
2022-07-26T10:29:21.855Z,2.00
2022-07-26T10:32:16.287Z,2.10
2022-07-26T10:34:44.878Z,2.00
2022-07-26T10:37:23.785Z,1.83
2022-07-26T10:40:21.126Z,1.97
2022-07-26T10:42:49.189Z,1.60
2022-07-26T10:45:18.885Z,1.50
2022-07-26T10:48:11.522Z,1.30
2022-07-26T10:50:40.537Z,1.20
2022-07-26T10:53:09.910Z,1.23
2022-07-26T10:55:49.318Z,1.30
2022-07-26T10:58:17.629Z,1.20
2022-07-26T11:00:56.546Z,1.30
2022-07-26T11:03:24.619Z,1.30
2022-07-26T11:05:52.663Z,1.43
2022-07-26T11:08:20.546Z,1.40
2022-07-26T11:10:49.772Z,1.23
2022-07-26T11:13:19.682Z,1.37
2022-07-26T11:15:50.051Z,1.57
2022-07-26T11:18:24.236Z,1.40
2022-07-26T11:20:54.533Z,1.90
2022-07-26T11:23:34.468Z,1.30
2022-07-26T11:26:15.958Z,1.33
2022-07-26T11:28:49.153Z,1.40
2022-07-26T11:31:20.011Z,1.30
2022-07-26T11:33:51.975Z,1.17
2022-07-26T11:36:20.752Z,0.97
2022-07-26T11:38:51.483Z,1.00
2022-07-26T11:41:34.940Z,0.90
2022-07-26T11:44:04.160Z,1.03
2022-07-26T11:46:40.418Z,0.80
2022-07-26T11:49:18.223Z,0.83
2022-07-26T11:51:54.538Z,0.90
2022-07-26T11:54:23.259Z,0.87
2022-07-26T11:56:54.473Z,0.90
2022-07-26T11:59:23.377Z,1.20
2022-07-26T12:01:51.501Z,1.00
2022-07-26T12:04:22.081Z,0.80
2022-07-26T12:06:50.352Z,0.83
2022-07-26T12:09:32.225Z,0.90
2022-07-26T12:12:02.236Z,0.60
2022-07-26T12:14:31.133Z,1.10
2022-07-26T12:16:59.530Z,0.80
2022-07-26T12:19:30.183Z,0.63
2022-07-26T12:22:00.567Z,0.90
2022-07-26T12:24:46.633Z,0.90
2022-07-26T12:27:22.223Z,0.73
2022-07-26T12:29:51.795Z,0.93
2022-07-26T12:32:21.240Z,1.53
2022-07-26T12:34:58.392Z,1.40
2022-07-26T12:37:37.619Z,1.23
2022-07-26T12:40:11.688Z,1.30
2022-07-26T12:42:42.571Z,0.93
2022-07-26T12:45:12.453Z,0.90
2022-07-26T12:47:41.841Z,1.30
2022-07-26T12:50:11.328Z,1.33
2022-07-26T12:52:41.222Z,1.30
2022-07-26T12:55:14.020Z,1.33
2022-07-26T12:57:47.455Z,1.10
2022-07-26T13:00:18.414Z,1.67
2022-07-26T13:02:46.734Z,1.20
2022-07-26T13:05:15.509Z,1.60
2022-07-26T13:07:43.411Z,1.20
2022-07-26T13:13:01.698Z,1.37
2022-07-26T13:15:36.050Z,0.90
2022-07-26T13:18:06.382Z,1.10
2022-07-26T13:20:34.253Z,1.10
2022-07-26T13:23:02.781Z,1.60
2022-07-26T13:25:38.706Z,1.10
2022-07-26T13:28:10.167Z,0.80
2022-07-26T13:30:42.897Z,1.20
2022-07-26T13:33:11.042Z,1.13
2022-07-26T13:35:41.137Z,1.00
2022-07-26T13:38:10.055Z,1.23
2022-07-26T13:40:37.859Z,0.80
2022-07-26T13:43:06.069Z,1.00
2022-07-26T13:45:35.903Z,1.07
2022-07-26T13:48:07.079Z,2.33
2022-07-26T13:50:35.084Z,0.93
2022-07-26T13:53:03.586Z,1.10
2022-07-26T13:55:31.393Z,0.97
2022-07-26T13:57:59.238Z,1.10
2022-07-26T14:00:27.815Z,1.00
2022-07-26T14:02:59.237Z,1.10
2022-07-26T14:05:28.258Z,1.07
2022-07-26T14:07:56.568Z,0.97
2022-07-26T14:10:25.426Z,1.00
2022-07-26T14:12:53.709Z,1.00
2022-07-26T14:15:23.333Z,1.00
2022-07-26T14:17:51.863Z,1.00
2022-07-26T14:20:21.450Z,1.17
2022-07-26T14:22:53.083Z,0.90
2022-07-26T14:25:21.050Z,1.30
2022-07-26T14:27:48.908Z,0.93
2022-07-26T14:30:16.757Z,1.00
2022-07-26T14:32:44.613Z,1.27
2022-07-26T14:35:13.562Z,1.10
2022-07-26T14:37:45.598Z,1.17
2022-07-26T14:40:15.872Z,1.17
2022-07-26T14:42:44.702Z,1.50
2022-07-26T14:45:14.249Z,0.97
2022-07-26T14:47:42.821Z,1.10
2022-07-26T14:50:12.379Z,0.90
2022-07-26T14:52:42.913Z,0.97
2022-07-26T14:55:11.838Z,1.03
2022-07-26T14:57:40.686Z,0.83
2022-07-26T15:00:11.724Z,1.00
2022-07-26T15:02:41.044Z,1.30
2022-07-26T15:05:09.698Z,1.13
2022-07-26T15:07:38.311Z,0.97
2022-07-26T15:10:09.155Z,1.17
2022-07-26T15:12:37.854Z,0.70
2022-07-26T15:15:07.357Z,1.10
2022-07-26T15:17:36.885Z,1.17
2022-07-26T15:20:06.102Z,1.17
2022-07-26T15:22:35.353Z,1.00
2022-07-26T15:25:03.390Z,0.90
2022-07-26T15:27:32.824Z,0.83
2022-07-26T15:30:04.972Z,1.20
2022-07-26T15:32:33.977Z,1.30
2022-07-26T15:35:01.952Z,1.03
2022-07-26T15:37:29.927Z,1.30
2022-07-26T15:39:57.927Z,1.10
2022-07-26T15:42:25.761Z,1.30
2022-07-26T15:44:55.000Z,1.43
2022-07-26T15:47:52.402Z,1.20
2022-07-26T15:50:14.056Z,1.47
2022-07-26T15:52:45.337Z,0.90
2022-07-26T15:55:14.188Z,1.50
2022-07-26T15:57:42.461Z,0.97
2022-07-26T16:00:13.328Z,1.27
2022-07-26T16:02:42.822Z,2.10
2022-07-26T16:05:11.913Z,1.60
2022-07-26T16:07:41.366Z,1.60
2022-07-26T16:10:10.663Z,1.57
2022-07-26T16:12:38.611Z,1.47
2022-07-26T16:15:07.882Z,1.67
2022-07-26T16:17:37.419Z,1.70
2022-07-26T16:20:06.531Z,1.60
2022-07-26T16:22:34.612Z,1.10
2022-07-26T16:25:05.902Z,1.83
2022-07-26T16:27:33.740Z,1.50
2022-07-26T16:30:01.597Z,1.60
2022-07-26T16:32:29.448Z,1.57
2022-07-26T16:34:58.641Z,1.50
2022-07-26T16:37:27.465Z,1.33
2022-07-26T16:39:55.727Z,1.73
2022-07-26T16:42:24.070Z,1.73
2022-07-26T16:44:52.281Z,1.37
2022-07-26T16:47:20.167Z,1.30
2022-07-26T16:49:48.420Z,1.63
2022-07-26T16:52:17.695Z,1.80
2022-07-26T16:54:45.518Z,1.47
2022-07-26T16:57:13.394Z,1.93
2022-07-26T16:59:41.199Z,1.77
2022-07-26T17:02:09.839Z,1.70
2022-07-26T17:04:37.826Z,1.80
2022-07-26T17:07:24.600Z,1.30
2022-07-26T17:09:55.647Z,1.73
2022-07-26T17:12:24.291Z,1.60
2022-07-26T17:14:52.589Z,1.27
2022-07-26T17:17:20.476Z,1.40
2022-07-26T17:19:48.377Z,1.80
2022-07-26T17:22:16.874Z,1.53
2022-07-26T17:24:44.806Z,1.60
2022-07-26T17:27:14.182Z,1.50
2022-07-26T17:29:42.093Z,1.40
2022-07-26T17:32:11.868Z,1.50
2022-07-26T17:34:40.330Z,1.53
2022-07-26T17:37:10.229Z,1.60
2022-07-26T17:39:52.697Z,2.10
2022-07-26T17:42:23.727Z,1.63
2022-07-26T17:44:51.849Z,1.90
2022-07-26T17:47:28.992Z,1.90
2022-07-26T17:50:13.956Z,1.60
2022-07-26T17:52:47.768Z,1.30
2022-07-26T17:55:15.665Z,1.60
2022-07-26T17:57:45.226Z,1.53
2022-07-26T18:00:14.545Z,1.40
2022-07-26T18:02:42.406Z,1.50
2022-07-26T18:05:11.114Z,1.97
2022-07-26T18:07:39.401Z,2.10
2022-07-26T18:10:08.051Z,1.73
2022-07-26T18:12:35.924Z,1.40
2022-07-26T18:15:06.253Z,1.70
2022-07-26T18:17:34.114Z,1.33
2022-07-26T18:20:01.958Z,1.30
2022-07-26T18:22:29.795Z,1.47
2022-07-26T18:24:57.640Z,1.50
2022-07-26T18:27:28.038Z,1.40
2022-07-26T18:29:56.464Z,1.63
2022-07-26T18:32:25.813Z,1.57
2022-07-26T18:34:53.738Z,1.33
2022-07-26T18:37:22.380Z,1.60
2022-07-26T18:39:55.403Z,1.63
2022-07-26T18:42:25.000Z,1.63
2022-07-26T18:44:52.836Z,1.50
2022-07-26T18:50:15.340Z,1.47
2022-07-26T18:52:45.588Z,1.70
2022-07-26T18:55:14.735Z,1.33
2022-07-26T18:57:44.237Z,1.47
2022-07-26T19:00:14.692Z,1.47
2022-07-26T19:02:43.338Z,1.40
2022-07-26T19:05:13.294Z,1.43
2022-07-26T19:07:41.836Z,1.63
2022-07-26T19:10:11.448Z,1.70
2022-07-26T19:12:39.419Z,1.70
2022-07-26T19:15:08.500Z,1.40
2022-07-26T19:17:37.578Z,1.23
2022-07-26T19:20:09.237Z,1.30
2022-07-26T19:22:38.842Z,1.43
2022-07-26T19:25:10.542Z,1.40
2022-07-26T19:27:38.904Z,1.40
2022-07-26T19:30:08.590Z,1.50
2022-07-26T19:32:36.680Z,1.30
2022-07-26T19:35:05.873Z,1.60
2022-07-26T19:37:33.709Z,1.70
2022-07-26T19:40:03.828Z,1.00
2022-07-26T19:42:32.923Z,1.43
2022-07-26T19:45:01.026Z,1.67
2022-07-26T19:47:30.006Z,1.30
2022-07-26T19:49:58.732Z,1.60
2022-07-26T19:52:26.639Z,1.43
2022-07-26T19:54:54.668Z,1.47
2022-07-26T19:57:23.848Z,1.83
2022-07-26T19:59:51.830Z,1.30
2022-07-26T20:02:19.814Z,1.30
2022-07-26T20:04:50.786Z,1.33
2022-07-26T20:07:19.657Z,1.30
2022-07-26T20:09:48.446Z,2.00
2022-07-26T20:12:16.465Z,1.60
2022-07-26T20:14:45.881Z,1.60
2022-07-26T20:17:13.889Z,1.47
2022-07-26T20:19:43.017Z,1.30
2022-07-26T20:22:10.900Z,1.30
2022-07-26T20:24:39.226Z,1.30
2022-07-26T20:27:07.099Z,1.47
2022-07-26T20:29:35.304Z,1.40
2022-07-26T20:32:06.461Z,1.73
2022-07-26T20:34:34.958Z,1.10
2022-07-26T20:37:02.868Z,1.30
2022-07-26T20:39:30.713Z,1.33
2022-07-26T20:41:58.591Z,1.37
2022-07-26T20:44:32.061Z,1.07
2022-07-26T20:46:59.907Z,1.40
2022-07-26T20:49:29.105Z,1.20
2022-07-26T20:51:57.696Z,1.17
2022-07-26T20:54:25.618Z,1.40
2022-07-26T20:56:53.558Z,1.33
2022-07-26T20:59:21.415Z,1.10
2022-07-26T21:01:49.382Z,1.40
2022-07-26T21:04:17.300Z,1.33
2022-07-26T21:06:46.623Z,1.90
2022-07-26T21:09:14.709Z,1.70
2022-07-26T21:11:42.816Z,1.30
2022-07-26T21:14:10.795Z,1.40
2022-07-26T21:16:39.027Z,1.33
2022-07-26T21:19:07.057Z,1.30
2022-07-26T21:21:36.930Z,1.10
2022-07-26T21:24:08.617Z,1.87
2022-07-26T21:26:36.507Z,1.27
2022-07-26T21:29:06.095Z,1.40
2022-07-26T21:31:33.887Z,1.33
2022-07-26T21:34:01.739Z,1.50
2022-07-26T21:36:29.632Z,1.33
2022-07-26T21:38:59.123Z,1.70
2022-07-26T21:41:28.389Z,1.47
2022-07-26T21:43:56.242Z,1.47
2022-07-26T21:46:24.187Z,1.30
2022-07-26T21:48:52.371Z,1.10
2022-07-26T21:51:20.421Z,1.30
2022-07-26T21:53:48.365Z,1.83
2022-07-26T21:56:17.373Z,1.20
2022-07-26T21:58:46.917Z,1.70
2022-07-26T22:01:15.709Z,1.53
2022-07-26T22:03:44.023Z,1.70
2022-07-26T22:06:13.205Z,1.40
2022-07-26T22:08:41.102Z,1.10
2022-07-26T22:11:09.006Z,1.77
2022-07-26T22:13:37.231Z,1.30
2022-07-26T22:16:07.683Z,1.30
2022-07-26T22:18:35.828Z,1.30
2022-07-26T22:21:03.705Z,2.30
2022-07-26T22:23:31.688Z,1.30
2022-07-26T22:26:01.864Z,1.77
2022-07-26T22:28:30.106Z,1.77
2022-07-26T22:30:58.374Z,1.50
2022-07-26T22:33:27.624Z,1.50
2022-07-26T22:35:55.780Z,1.43
2022-07-26T22:38:23.591Z,1.33
2022-07-26T22:40:51.507Z,1.43
2022-07-26T22:43:19.426Z,1.60
2022-07-26T22:45:47.308Z,1.70
2022-07-26T22:48:15.208Z,1.20
2022-07-26T22:50:44.440Z,1.40
2022-07-26T22:53:12.395Z,1.70
2022-07-26T22:55:40.445Z,1.60
2022-07-26T22:58:08.241Z,1.30
2022-07-26T23:00:36.409Z,2.00
2022-07-26T23:03:04.453Z,1.63
2022-07-26T23:05:45.277Z,1.73
2022-07-26T23:08:44.250Z,1.67
2022-07-26T23:11:04.171Z,1.23
2022-07-26T23:13:32.106Z,1.77
2022-07-26T23:16:01.444Z,1.90
2022-07-26T23:18:29.892Z,1.33
2022-07-26T23:20:58.090Z,1.53
2022-07-26T23:23:30.034Z,1.30
2022-07-26T23:25:59.097Z,1.63
2022-07-26T23:28:35.411Z,1.00
2022-07-26T23:31:06.687Z,1.40
2022-07-26T23:33:50.476Z,1.40
2022-07-26T23:36:21.597Z,1.37
2022-07-26T23:38:51.068Z,1.63
2022-07-26T23:41:19.321Z,1.40
2022-07-26T23:43:47.171Z,1.87
2022-07-26T23:46:15.963Z,1.27
2022-07-26T23:48:43.831Z,1.50
2022-07-26T23:51:12.067Z,1.77
2022-07-26T23:53:39.941Z,1.83
2022-07-26T23:56:09.695Z,1.33
2022-07-26T23:58:37.485Z,1.80
